Time;durP1;ratioP1;P1;durP2;ratioP2;P2;SDS_P1;SDS_P2;PMS_P1;PMS_P2;Temp;Humidity;BMP_temperature;BMP_pressure;BME280_temperature;BME280_humidity;BME280_pressure;Samples;Min_cycle;Max_cycle;Signal;HPM_P1;HPM_P2
2024/01/16 00:00:08;;;;;;;14.93;1.70;;;;;;;;;;5064470;28;20050;-71
2024/01/16 00:02:35;;;;;;;12.30;2.05;;;;;;;;;;5091913;28;20066;-72
2024/01/16 00:05:01;;;;;;;7.20;1.55;;;;;;;;;;5076337;28;20048;-72
2024/01/16 00:07:27;;;;;;;8.43;1.73;;;;;;;;;;5068910;28;20138;-70
2024/01/16 00:09:53;;;;;;;8.48;2.00;;;;;;;;;;5073582;28;20033;-71
2024/01/16 00:12:20;;;;;;;9.93;1.50;;;;;;;;;;5080040;28;20032;-70
2024/01/16 00:14:46;;;;;;;12.43;2.83;;;;;;;;;;5081510;28;20032;-71
2024/01/16 00:17:12;;;;;;;7.43;1.40;;;;;;;;;;5057298;28;20044;-71
2024/01/16 00:19:38;;;;;;;7.47;1.63;;;;;;;;;;5075461;28;20155;-71
2024/01/16 00:22:04;;;;;;;6.88;1.50;;;;;;;;;;5076333;28;20033;-71
2024/01/16 00:24:31;;;;;;;7.07;1.50;;;;;;;;;;5078715;28;20037;-71
2024/01/16 00:26:57;;;;;;;6.00;1.40;;;;;;;;;;5083677;28;20111;-72
2024/01/16 00:29:23;;;;;;;2.92;1.30;;;;;;;;;;5067482;28;20441;-71
2024/01/16 00:31:49;;;;;;;7.93;1.45;;;;;;;;;;5078520;28;20082;-72
2024/01/16 00:34:15;;;;;;;7.20;1.30;;;;;;;;;;5069459;28;20488;-72
2024/01/16 00:36:41;;;;;;;7.60;1.63;;;;;;;;;;5091588;28;20039;-72
2024/01/16 00:39:08;;;;;;;6.20;1.48;;;;;;;;;;5067041;28;20055;-72
2024/01/16 00:41:34;;;;;;;3.33;1.33;;;;;;;;;;5076334;28;20116;-72
2024/01/16 00:44:00;;;;;;;9.00;1.23;;;;;;;;;;5061406;28;20040;-72
2024/01/16 00:46:26;;;;;;;4.20;1.35;;;;;;;;;;5064673;28;20036;-72
2024/01/16 00:48:52;;;;;;;4.50;1.20;;;;;;;;;;5066093;28;20112;-72
2024/01/16 00:51:18;;;;;;;6.15;1.30;;;;;;;;;;5089567;28;20036;-72
2024/01/16 00:53:44;;;;;;;7.82;1.35;;;;;;;;;;5071630;28;20048;-72
2024/01/16 00:56:12;;;;;;;8.45;1.38;;;;;;;;;;5064140;28;20373;-72
2024/01/16 00:58:38;;;;;;;4.35;1.40;;;;;;;;;;5082185;28;20459;-72
2024/01/16 01:01:04;;;;;;;8.38;1.70;;;;;;;;;;5090648;28;20032;-72
2024/01/16 01:03:30;;;;;;;7.63;1.50;;;;;;;;;;5060253;28;20041;-72
2024/01/16 01:05:57;;;;;;;9.35;1.60;;;;;;;;;;5064011;28;20147;-72
2024/01/16 01:08:23;;;;;;;5.82;1.67;;;;;;;;;;5079418;28;20441;-72
2024/01/16 01:10:49;;;;;;;6.63;1.45;;;;;;;;;;5072387;28;20108;-72
2024/01/16 01:13:15;;;;;;;4.25;1.50;;;;;;;;;;5072352;28;20484;-72
2024/01/16 01:15:41;;;;;;;4.63;1.65;;;;;;;;;;5079799;28;20032;-72
2024/01/16 01:18:07;;;;;;;6.80;1.42;;;;;;;;;;5063088;28;20051;-72
2024/01/16 01:20:33;;;;;;;8.65;1.65;;;;;;;;;;5076462;28;20123;-72
2024/01/16 01:23:00;;;;;;;5.90;1.52;;;;;;;;;;5065325;28;20032;-72
2024/01/16 01:25:26;;;;;;;6.20;1.65;;;;;;;;;;5075659;28;20075;-72
2024/01/16 01:27:52;;;;;;;10.30;2.47;;;;;;;;;;5072538;28;20115;-72
2024/01/16 01:30:18;;;;;;;8.75;1.83;;;;;;;;;;5085061;28;20040;-73
2024/01/16 01:32:44;;;;;;;7.07;1.45;;;;;;;;;;5089088;28;20495;-72
2024/01/16 01:35:11;;;;;;;9.75;1.50;;;;;;;;;;5080228;28;20040;-73
2024/01/16 01:37:38;;;;;;;8.85;2.20;;;;;;;;;;5061448;28;20058;-73
2024/01/16 01:40:04;;;;;;;6.78;1.52;;;;;;;;;;5072170;28;20063;-73
2024/01/16 01:42:30;;;;;;;8.48;1.77;;;;;;;;;;5055518;28;20052;-73
2024/01/16 01:44:57;;;;;;;6.35;1.40;;;;;;;;;;5071957;28;20365;-73
2024/01/16 01:47:23;;;;;;;7.55;1.63;;;;;;;;;;5088347;28;20044;-73
2024/01/16 01:49:49;;;;;;;11.25;1.45;;;;;;;;;;5075212;28;20040;-72
2024/01/16 01:52:15;;;;;;;10.85;1.92;;;;;;;;;;5078543;28;20044;-73
2024/01/16 01:54:41;;;;;;;5.18;1.40;;;;;;;;;;5074060;28;20044;-73
2024/01/16 01:57:09;;;;;;;5.80;1.45;;;;;;;;;;5072627;28;20047;-73
2024/01/16 01:59:35;;;;;;;9.07;1.20;;;;;;;;;;5054976;28;20036;-72
2024/01/16 02:02:01;;;;;;;2.15;1.40;;;;;;;;;;5061653;28;20384;-73
2024/01/16 02:04:28;;;;;;;7.97;1.33;;;;;;;;;;5072571;28;20044;-73
2024/01/16 02:06:56;;;;;;;5.35;1.13;;;;;;;;;;5080775;28;20056;-73
2024/01/16 02:09:22;;;;;;;10.60;1.55;;;;;;;;;;5078366;28;20047;-73
2024/01/16 02:11:48;;;;;;;4.63;1.00;;;;;;;;;;5081637;28;20485;-73
2024/01/16 02:14:14;;;;;;;3.28;1.10;;;;;;;;;;5087494;28;20438;-73
2024/01/16 02:16:41;;;;;;;4.97;1.17;;;;;;;;;;5085683;28;20045;-73
2024/01/16 02:19:08;;;;;;;8.05;1.73;;;;;;;;;;5061372;28;20028;-73
2024/01/16 02:21:39;;;;;;;6.10;1.35;;;;;;;;;;5085504;28;20036;-73
2024/01/16 02:24:11;;;;;;;6.82;1.58;;;;;;;;;;5083876;28;20044;-73
2024/01/16 02:26:37;;;;;;;6.53;1.30;;;;;;;;;;5088985;28;20504;-73
2024/01/16 02:29:04;;;;;;;11.70;1.80;;;;;;;;;;5045438;28;20426;-73
2024/01/16 02:31:31;;;;;;;8.38;1.80;;;;;;;;;;5083861;28;20549;-73
2024/01/16 02:33:58;;;;;;;7.78;1.60;;;;;;;;;;5080398;28;20380;-73
2024/01/16 02:36:24;;;;;;;10.15;2.25;;;;;;;;;;5090896;28;20052;-73
2024/01/16 02:38:50;;;;;;;4.75;1.42;;;;;;;;;;5076557;28;20032;-73
2024/01/16 02:41:16;;;;;;;9.40;1.73;;;;;;;;;;5073557;28;20032;-73
2024/01/16 02:43:43;;;;;;;3.60;1.42;;;;;;;;;;5086724;28;20036;-73
2024/01/16 02:46:09;;;;;;;11.60;2.00;;;;;;;;;;5093796;28;20041;-73
2024/01/16 02:48:36;;;;;;;8.60;1.40;;;;;;;;;;5078244;28;20385;-73
2024/01/16 02:51:03;;;;;;;8.20;1.30;;;;;;;;;;5092086;28;20447;-73
2024/01/16 02:53:29;;;;;;;8.82;1.55;;;;;;;;;;5060336;28;20036;-73
2024/01/16 02:55:58;;;;;;;5.45;1.20;;;;;;;;;;5078663;28;20097;-73
2024/01/16 02:58:24;;;;;;;7.63;1.90;;;;;;;;;;5071147;28;20497;-73
2024/01/16 03:00:50;;;;;;;3.97;1.20;;;;;;;;;;5098730;28;20091;-74
2024/01/16 03:03:17;;;;;;;5.38;1.40;;;;;;;;;;5102096;28;20024;-74
2024/01/16 03:05:43;;;;;;;3.90;1.30;;;;;;;;;;5090342;28;20056;-74
2024/01/16 03:08:09;;;;;;;8.68;1.45;;;;;;;;;;5105690;28;20039;-73
2024/01/16 03:10:35;;;;;;;5.50;1.45;;;;;;;;;;5121315;28;20027;-74
2024/01/16 03:13:02;;;;;;;7.60;1.40;;;;;;;;;;5086625;28;20101;-74
2024/01/16 03:15:30;;;;;;;7.80;1.52;;;;;;;;;;5107588;28;20036;-73
2024/01/16 03:17:57;;;;;;;15.20;1.60;;;;;;;;;;5090455;28;20097;-73
2024/01/16 03:20:24;;;;;;;7.10;1.50;;;;;;;;;;5088116;28;20036;-78
2024/01/16 03:22:50;;;;;;;8.93;1.85;;;;;;;;;;5073150;28;20123;-73
2024/01/16 03:25:17;;;;;;;8.52;1.48;;;;;;;;;;5075993;28;20032;-74
2024/01/16 03:27:44;;;;;;;10.48;1.73;;;;;;;;;;5074728;28;20051;-73
2024/01/16 03:30:10;;;;;;;3.78;1.33;;;;;;;;;;5082953;28;20095;-74
2024/01/16 03:32:39;;;;;;;4.10;1.38;;;;;;;;;;5092706;28;20035;-73
2024/01/16 03:35:06;;;;;;;8.10;1.85;;;;;;;;;;5064650;28;20052;-73
2024/01/16 03:37:32;;;;;;;11.57;1.80;;;;;;;;;;5063515;28;20036;-74
2024/01/16 03:39:58;;;;;;;8.23;1.70;;;;;;;;;;5084562;28;20096;-74
2024/01/16 03:42:24;;;;;;;9.52;1.73;;;;;;;;;;5070033;28;20048;-74
2024/01/16 03:44:51;;;;;;;8.70;1.42;;;;;;;;;;5079113;28;20173;-74
2024/01/16 03:47:17;;;;;;;6.60;1.42;;;;;;;;;;5091371;28;20043;-74
2024/01/16 03:49:43;;;;;;;15.52;1.92;;;;;;;;;;5079440;28;20039;-73
2024/01/16 03:52:09;;;;;;;10.13;1.88;;;;;;;;;;5046022;28;20366;-73
2024/01/16 03:54:35;;;;;;;5.68;1.67;;;;;;;;;;5077994;28;20043;-73
2024/01/16 03:57:01;;;;;;;8.60;1.70;;;;;;;;;;5062976;28;20492;-73
2024/01/16 03:59:28;;;;;;;7.18;1.73;;;;;;;;;;5065335;28;20048;-73
2024/01/16 04:01:54;;;;;;;7.20;1.92;;;;;;;;;;5064458;28;20406;-73
2024/01/16 04:04:20;;;;;;;7.53;1.52;;;;;;;;;;5063534;28;20037;-73
2024/01/16 04:06:49;;;;;;;7.70;1.73;;;;;;;;;;5072171;28;20071;-73
2024/01/16 04:09:15;;;;;;;11.75;1.60;;;;;;;;;;5076452;28;20056;-73
2024/01/16 04:11:42;;;;;;;8.57;1.52;;;;;;;;;;5060323;28;20036;-74
2024/01/16 04:14:08;;;;;;;10.80;1.88;;;;;;;;;;5093818;28;20043;-73
2024/01/16 04:16:34;;;;;;;7.90;1.70;;;;;;;;;;5077253;28;20381;-74
2024/01/16 04:19:00;;;;;;;6.97;1.35;;;;;;;;;;5093702;28;20100;-73
2024/01/16 04:21:26;;;;;;;10.18;1.75;;;;;;;;;;5073372;28;20072;-74
2024/01/16 04:23:52;;;;;;;5.45;1.33;;;;;;;;;;5056659;28;20040;-74
2024/01/16 04:26:18;;;;;;;7.35;1.52;;;;;;;;;;5073274;28;20123;-74
2024/01/16 04:28:44;;;;;;;5.85;1.50;;;;;;;;;;5056579;28;20068;-74
2024/01/16 04:31:11;;;;;;;5.97;1.75;;;;;;;;;;5073387;28;20071;-74
2024/01/16 04:33:38;;;;;;;11.75;1.52;;;;;;;;;;5073478;28;20087;-73
2024/01/16 04:36:05;;;;;;;5.32;1.27;;;;;;;;;;5056715;28;20103;-73
2024/01/16 04:38:31;;;;;;;4.88;1.63;;;;;;;;;;5073043;28;20512;-74
2024/01/16 04:40:57;;;;;;;8.10;1.52;;;;;;;;;;5073008;28;20392;-73
2024/01/16 04:43:23;;;;;;;6.53;2.05;;;;;;;;;;5056210;28;20049;-74
2024/01/16 04:45:49;;;;;;;5.85;1.65;;;;;;;;;;5073169;28;20043;-73
2024/01/16 04:48:15;;;;;;;3.45;1.40;;;;;;;;;;5072874;28;20484;-73
2024/01/16 04:50:41;;;;;;;7.15;1.80;;;;;;;;;;5072820;28;20040;-73
2024/01/16 04:53:07;;;;;;;8.80;1.58;;;;;;;;;;5056289;28;20045;-73
2024/01/16 04:55:34;;;;;;;6.15;2.08;;;;;;;;;;5072853;28;20040;-73
2024/01/16 04:58:00;;;;;;;2.90;1.38;;;;;;;;;;5092997;28;20082;-73
2024/01/16 05:00:26;;;;;;;7.05;1.50;;;;;;;;;;5076133;28;20044;-73
2024/01/16 05:02:52;;;;;;;6.63;1.30;;;;;;;;;;5086638;28;20522;-74
2024/01/16 05:05:18;;;;;;;6.32;2.15;;;;;;;;;;5055759;28;20080;-73
2024/01/16 05:07:45;;;;;;;8.25;1.38;;;;;;;;;;5072555;28;20067;-73
2024/01/16 05:10:14;;;;;;;8.70;1.75;;;;;;;;;;5052819;28;20041;-73
2024/01/16 05:12:41;;;;;;;7.03;1.20;;;;;;;;;;5052305;28;20102;-74
2024/01/16 05:15:07;;;;;;;13.63;1.80;;;;;;;;;;5052436;28;20108;-72
2024/01/16 05:17:34;;;;;;;9.00;1.60;;;;;;;;;;5036197;28;20055;-72
2024/01/16 05:20:00;;;;;;;7.68;1.70;;;;;;;;;;5053736;28;20488;-72
2024/01/16 05:22:26;;;;;;;9.50;1.95;;;;;;;;;;5092445;28;20047;-72
2024/01/16 05:24:52;;;;;;;10.73;1.42;;;;;;;;;;5092659;28;20070;-72
2024/01/16 05:27:18;;;;;;;7.57;1.65;;;;;;;;;;5075984;28;20055;-72
2024/01/16 05:29:44;;;;;;;4.07;1.35;;;;;;;;;;5092833;28;20036;-73
2024/01/16 05:32:10;;;;;;;9.45;1.90;;;;;;;;;;5092659;28;20052;-72
2024/01/16 05:34:36;;;;;;;5.20;1.20;;;;;;;;;;5075582;28;20433;-73
2024/01/16 05:37:02;;;;;;;5.75;1.65;;;;;;;;;;5076015;28;20044;-72
2024/01/16 05:39:28;;;;;;;4.20;1.40;;;;;;;;;;5091616;28;20039;-72
2024/01/16 05:41:55;;;;;;;6.50;1.63;;;;;;;;;;5092137;28;20036;-72
2024/01/16 05:44:21;;;;;;;4.72;1.77;;;;;;;;;;5092235;28;20488;-72
2024/01/16 05:46:47;;;;;;;3.70;1.77;;;;;;;;;;5075714;28;20119;-72
2024/01/16 05:49:13;;;;;;;5.38;1.60;;;;;;;;;;5092055;28;20040;-72
2024/01/16 05:51:39;;;;;;;6.57;1.92;;;;;;;;;;5092414;28;20345;-72
2024/01/16 05:54:05;;;;;;;7.07;2.40;;;;;;;;;;5092039;28;20083;-72
2024/01/16 05:56:33;;;;;;;7.05;1.85;;;;;;;;;;5091426;28;20123;-73
2024/01/16 05:58:59;;;;;;;10.73;2.22;;;;;;;;;;5072246;28;20049;-72
2024/01/16 06:01:27;;;;;;;12.65;2.25;;;;;;;;;;5055160;28;20040;-73
2024/01/16 06:03:53;;;;;;;8.85;1.98;;;;;;;;;;5071930;28;20051;-73
2024/01/16 06:06:19;;;;;;;5.93;1.55;;;;;;;;;;5071493;28;20040;-72
2024/01/16 06:08:45;;;;;;;5.07;1.52;;;;;;;;;;5071666;28;20093;-73
2024/01/16 06:11:12;;;;;;;4.78;1.42;;;;;;;;;;5071565;28;20082;-73
2024/01/16 06:13:39;;;;;;;5.05;1.75;;;;;;;;;;5071902;28;20059;-73
2024/01/16 06:16:08;;;;;;;6.45;1.80;;;;;;;;;;5071698;28;20048;-73
2024/01/16 06:18:34;;;;;;;8.38;1.80;;;;;;;;;;5071690;28;20048;-72
2024/01/16 06:21:00;;;;;;;5.80;2.20;;;;;;;;;;5071583;28;20044;-73
2024/01/16 06:23:26;;;;;;;6.00;1.45;;;;;;;;;;5071777;28;20114;-73
2024/01/16 06:25:52;;;;;;;7.68;1.58;;;;;;;;;;5071930;28;20106;-73
2024/01/16 06:28:19;;;;;;;10.55;1.67;;;;;;;;;;5071948;28;20052;-73
2024/01/16 06:30:45;;;;;;;7.70;1.63;;;;;;;;;;5071779;28;20041;-73
2024/01/16 06:33:11;;;;;;;6.70;1.60;;;;;;;;;;5054943;28;20044;-73
2024/01/16 06:35:37;;;;;;;7.03;1.75;;;;;;;;;;5071591;28;20291;-73
2024/01/16 06:38:03;;;;;;;11.63;1.80;;;;;;;;;;5055013;28;20045;-73
2024/01/16 06:40:29;;;;;;;5.60;1.70;;;;;;;;;;5071767;28;20043;-73
2024/01/16 06:42:55;;;;;;;9.70;2.80;;;;;;;;;;5072736;28;20400;-73
2024/01/16 06:45:21;;;;;;;11.02;2.60;;;;;;;;;;5073870;28;20040;-73
2024/01/16 06:47:47;;;;;;;11.73;2.38;;;;;;;;;;5082773;28;20096;-73
2024/01/16 06:50:13;;;;;;;11.77;2.67;;;;;;;;;;5091704;28;20040;-74
2024/01/16 06:52:39;;;;;;;10.48;2.28;;;;;;;;;;5100756;28;20048;-73
2024/01/16 06:55:05;;;;;;;8.25;1.60;;;;;;;;;;5085728;28;20091;-74
2024/01/16 06:57:31;;;;;;;7.10;1.77;;;;;;;;;;5098858;28;20055;-73
2024/01/16 06:59:57;;;;;;;7.03;2.13;;;;;;;;;;5098418;28;20044;-73
2024/01/16 07:02:26;;;;;;;17.10;2.25;;;;;;;;;;5092124;28;20047;-75
2024/01/16 07:04:52;;;;;;;10.85;2.00;;;;;;;;;;5057781;28;20036;-74
2024/01/16 07:07:18;;;;;;;8.20;1.80;;;;;;;;;;5079098;28;20055;-74
2024/01/16 07:09:44;;;;;;;9.18;2.53;;;;;;;;;;5083752;28;20481;-74
2024/01/16 07:12:10;;;;;;;10.13;2.30;;;;;;;;;;5076659;28;20562;-74
2024/01/16 07:14:37;;;;;;;15.15;1.90;;;;;;;;;;5058734;28;20040;-74
2024/01/16 07:17:07;;;;;;;7.32;1.90;;;;;;;;;;5063404;28;20032;-74
2024/01/16 07:19:33;;;;;;;6.82;2.42;;;;;;;;;;5080625;28;20109;-74
2024/01/16 07:21:59;;;;;;;8.18;1.80;;;;;;;;;;5076332;28;20148;-74
2024/01/16 07:24:25;;;;;;;5.93;1.45;;;;;;;;;;5057869;28;20086;-75
2024/01/16 07:26:54;;;;;;;9.40;1.30;;;;;;;;;;5077893;28;20029;-75
2024/01/16 07:29:20;;;;;;;10.63;1.65;;;;;;;;;;5079326;28;20043;-75
2024/01/16 07:31:46;;;;;;;8.88;1.45;;;;;;;;;;5076309;28;20114;-75
2024/01/16 07:34:17;;;;;;;10.18;1.80;;;;;;;;;;5074337;28;20050;-75
2024/01/16 07:36:43;;;;;;;6.43;2.00;;;;;;;;;;5057363;28;20052;-75
2024/01/16 07:39:09;;;;;;;5.15;1.65;;;;;;;;;;5059411;28;20051;-75
2024/01/16 07:41:35;;;;;;;5.80;1.63;;;;;;;;;;5060916;28;20076;-74
2024/01/16 07:44:01;;;;;;;9.07;1.70;;;;;;;;;;5074456;28;20037;-74
2024/01/16 07:46:28;;;;;;;16.52;1.88;;;;;;;;;;5058835;28;20045;-74
2024/01/16 07:48:54;;;;;;;12.00;2.03;;;;;;;;;;5073757;28;20500;-74
2024/01/16 07:51:20;;;;;;;7.65;1.70;;;;;;;;;;5058740;28;20088;-75
2024/01/16 07:53:47;;;;;;;10.10;2.35;;;;;;;;;;5093310;28;20035;-75
2024/01/16 07:56:13;;;;;;;10.65;2.13;;;;;;;;;;5074028;28;20044;-75
2024/01/16 07:58:39;;;;;;;8.18;2.67;;;;;;;;;;5037815;28;20045;-75
2024/01/16 08:01:06;;;;;;;12.13;2.45;;;;;;;;;;5091335;28;20400;-75
2024/01/16 08:03:32;;;;;;;3.97;1.63;;;;;;;;;;5074600;28;20041;-75
2024/01/16 08:05:59;;;;;;;5.47;1.48;;;;;;;;;;5056157;28;20405;-75
2024/01/16 08:08:26;;;;;;;8.18;1.85;;;;;;;;;;5074108;28;20071;-75
2024/01/16 08:10:52;;;;;;;5.63;1.67;;;;;;;;;;5040912;28;20123;-75
2024/01/16 08:13:18;;;;;;;10.80;2.08;;;;;;;;;;5057211;28;20135;-75
2024/01/16 08:15:44;;;;;;;6.32;1.73;;;;;;;;;;5075084;28;20106;-75
2024/01/16 08:18:10;;;;;;;9.23;1.77;;;;;;;;;;5057393;28;20463;-76
2024/01/16 08:20:36;;;;;;;10.38;2.85;;;;;;;;;;5056993;28;20036;-76
2024/01/16 08:23:03;;;;;;;9.95;2.25;;;;;;;;;;5087298;28;20035;-78
2024/01/16 08:25:29;;;;;;;8.77;2.28;;;;;;;;;;5062852;28;20057;-75
2024/01/16 08:27:55;;;;;;;7.25;1.50;;;;;;;;;;5093724;28;20054;-75
2024/01/16 08:30:21;;;;;;;3.90;1.25;;;;;;;;;;5077041;28;20602;-75
2024/01/16 08:32:47;;;;;;;7.05;1.30;;;;;;;;;;5043367;28;20048;-75
2024/01/16 08:35:13;;;;;;;7.32;1.55;;;;;;;;;;5073489;28;20548;-75
2024/01/16 08:37:39;;;;;;;4.75;1.30;;;;;;;;;;5086383;28;20039;-75
2024/01/16 08:40:05;;;;;;;1.75;1.25;;;;;;;;;;5084830;28;20087;-75
2024/01/16 08:42:32;;;;;;;4.68;1.30;;;;;;;;;;5057680;28;20056;-75
2024/01/16 08:44:58;;;;;;;3.20;1.20;;;;;;;;;;5072128;28;20068;-75
2024/01/16 08:47:24;;;;;;;3.97;1.20;;;;;;;;;;5070357;28;20039;-75
2024/01/16 08:49:50;;;;;;;7.38;2.03;;;;;;;;;;5076107;28;20036;-75
2024/01/16 08:52:17;;;;;;;4.10;1.40;;;;;;;;;;5082164;28;20450;-75
2024/01/16 08:54:44;;;;;;;8.35;1.40;;;;;;;;;;5060566;28;20041;-75
2024/01/16 08:57:10;;;;;;;2.72;1.65;;;;;;;;;;5067783;28;20078;-74
2024/01/16 08:59:36;;;;;;;3.45;1.30;;;;;;;;;;5071366;28;20365;-74
2024/01/16 09:02:03;;;;;;;3.03;1.20;;;;;;;;;;5072613;28;20477;-74
2024/01/16 09:04:29;;;;;;;4.85;1.17;;;;;;;;;;5074595;28;20090;-74
2024/01/16 09:06:55;;;;;;;3.42;1.30;;;;;;;;;;5073273;28;20056;-74
2024/01/16 09:09:21;;;;;;;6.20;1.17;;;;;;;;;;5086555;28;20437;-74
2024/01/16 09:11:48;;;;;;;4.03;1.35;;;;;;;;;;5039284;28;20393;-74
2024/01/16 09:14:14;;;;;;;4.90;1.60;;;;;;;;;;5072229;28;20052;-75
2024/01/16 09:16:41;;;;;;;5.18;1.63;;;;;;;;;;5086442;28;20097;-75
2024/01/16 09:19:07;;;;;;;6.35;1.67;;;;;;;;;;5085734;28;20047;-74
2024/01/16 09:21:33;;;;;;;2.95;1.40;;;;;;;;;;5071471;28;20049;-74
2024/01/16 09:23:59;;;;;;;6.93;1.40;;;;;;;;;;5072770;28;20043;-75
2024/01/16 09:26:25;;;;;;;5.88;1.48;;;;;;;;;;5039773;28;20094;-75
2024/01/16 09:28:51;;;;;;;2.58;1.20;;;;;;;;;;5075532;28;20079;-75
2024/01/16 09:31:18;;;;;;;5.13;2.58;;;;;;;;;;5065668;28;20040;-75
2024/01/16 09:33:44;;;;;;;1.92;1.15;;;;;;;;;;5075540;28;20115;-75
2024/01/16 09:36:10;;;;;;;3.60;1.15;;;;;;;;;;5074474;28;20063;-75
2024/01/16 09:38:36;;;;;;;2.25;1.70;;;;;;;;;;5066435;28;20040;-75
2024/01/16 09:41:02;;;;;;;6.75;1.40;;;;;;;;;;5077548;28;20477;-75
2024/01/16 09:43:29;;;;;;;4.43;1.85;;;;;;;;;;5082294;28;20040;-76
2024/01/16 09:45:55;;;;;;;4.40;1.90;;;;;;;;;;5073050;28;20046;-74
2024/01/16 09:48:21;;;;;;;4.47;1.80;;;;;;;;;;5088480;28;20110;-76
2024/01/16 09:50:48;;;;;;;3.00;1.50;;;;;;;;;;5063663;28;20078;-76
2024/01/16 09:53:14;;;;;;;4.03;1.60;;;;;;;;;;5059442;28;20040;-76
2024/01/16 09:55:40;;;;;;;3.70;1.42;;;;;;;;;;5082547;28;20127;-75
2024/01/16 09:58:09;;;;;;;3.42;1.52;;;;;;;;;;5102808;28;20041;-75
2024/01/16 10:00:35;;;;;;;2.20;1.60;;;;;;;;;;5072031;28;20168;-75
2024/01/16 10:03:01;;;;;;;5.03;1.45;;;;;;;;;;5071968;28;20036;-75
2024/01/16 10:05:27;;;;;;;9.93;1.55;;;;;;;;;;5072246;28;20028;-75
2024/01/16 10:07:54;;;;;;;7.82;1.60;;;;;;;;;;5072877;28;20127;-75
2024/01/16 10:10:22;;;;;;;4.97;1.30;;;;;;;;;;5075450;28;20040;-75
2024/01/16 10:12:50;;;;;;;3.45;1.50;;;;;;;;;;5055528;28;20040;-74
2024/01/16 10:15:16;;;;;;;3.28;1.30;;;;;;;;;;5076665;28;20044;-74
2024/01/16 10:17:43;;;;;;;10.25;1.40;;;;;;;;;;5076570;28;20044;-75
2024/01/16 10:20:13;;;;;;;6.03;1.67;;;;;;;;;;5086619;28;20036;-75
2024/01/16 10:22:40;;;;;;;5.13;1.73;;;;;;;;;;5073358;28;20056;-74
2024/01/16 10:25:11;;;;;;;3.25;1.40;;;;;;;;;;5077011;28;20028;-75
2024/01/16 10:27:38;;;;;;;4.15;1.67;;;;;;;;;;5102525;28;20044;-74
2024/01/16 10:30:04;;;;;;;5.25;1.75;;;;;;;;;;5099484;28;20022;-75
2024/01/16 10:32:31;;;;;;;4.15;1.48;;;;;;;;;;5099099;28;20052;-75
2024/01/16 10:35:08;;;;;;;4.57;1.58;;;;;;;;;;5093210;28;20086;-75
2024/01/16 10:37:53;;;;;;;5.07;1.20;;;;;;;;;;5106861;28;20047;-75
2024/01/16 10:40:20;;;;;;;5.47;1.48;;;;;;;;;;5085790;28;20043;-75
2024/01/16 10:42:57;;;;;;;3.83;1.52;;;;;;;;;;5101273;28;20076;-75
2024/01/16 10:45:23;;;;;;;4.25;1.38;;;;;;;;;;5093165;28;20033;-74
2024/01/16 10:48:00;;;;;;;4.93;1.92;;;;;;;;;;5081547;28;20063;-74
2024/01/16 10:50:27;;;;;;;5.25;1.40;;;;;;;;;;5078897;28;20100;-74
2024/01/16 10:52:54;;;;;;;7.53;1.73;;;;;;;;;;5083147;28;20041;-73
2024/01/16 10:55:22;;;;;;;6.55;1.73;;;;;;;;;;5080380;28;20032;-73
2024/01/16 10:57:49;;;;;;;8.38;1.70;;;;;;;;;;5070765;28;20392;-73
2024/01/16 11:00:17;;;;;;;7.45;2.13;;;;;;;;;;5088197;28;20043;-73
2024/01/16 11:02:44;;;;;;;3.83;1.88;;;;;;;;;;5095201;28;20083;-74
2024/01/16 11:05:11;;;;;;;4.63;1.48;;;;;;;;;;5089220;28;20036;-74
2024/01/16 11:07:37;;;;;;;4.32;1.60;;;;;;;;;;5058243;28;20095;-73
2024/01/16 11:10:04;;;;;;;4.95;1.67;;;;;;;;;;5082910;28;20040;-73
2024/01/16 11:12:31;;;;;;;4.82;1.70;;;;;;;;;;5091722;28;20036;-73
2024/01/16 11:15:07;;;;;;;6.93;1.75;;;;;;;;;;5074643;28;20448;-74
2024/01/16 11:17:34;;;;;;;8.43;2.08;;;;;;;;;;5055014;28;20393;-74
2024/01/16 11:20:02;;;;;;;9.20;1.73;;;;;;;;;;5083153;28;20048;-74
2024/01/16 11:22:32;;;;;;;5.40;1.70;;;;;;;;;;5038049;28;20131;-74
2024/01/16 11:25:25;;;;;;;4.90;1.50;;;;;;;;;;5079358;28;20036;-74
2024/01/16 11:27:52;;;;;;;8.45;2.25;;;;;;;;;;5058049;28;20048;-74
2024/01/16 11:30:29;;;;;;;9.00;2.75;;;;;;;;;;5093023;28;20040;-74
2024/01/16 11:32:55;;;;;;;12.85;2.58;;;;;;;;;;5076842;28;20032;-74
2024/01/16 11:35:42;;;;;;;9.38;2.33;;;;;;;;;;5058979;28;20040;-75
2024/01/16 11:38:10;;;;;;;5.68;2.03;;;;;;;;;;5070193;28;20037;-75
2024/01/16 11:40:36;;;;;;;6.20;2.20;;;;;;;;;;5045127;28;20033;-75
2024/01/16 11:43:21;;;;;;;8.95;1.70;;;;;;;;;;5076849;28;20097;-76
2024/01/16 11:45:50;;;;;;;7.38;1.83;;;;;;;;;;5074627;28;20083;-75
2024/01/16 11:48:18;;;;;;;7.85;1.80;;;;;;;;;;5057412;28;20093;-75
2024/01/16 11:50:44;;;;;;;9.73;1.95;;;;;;;;;;5074092;28;20044;-74
2024/01/16 11:53:10;;;;;;;8.05;2.22;;;;;;;;;;5085641;28;20040;-74
2024/01/16 11:55:40;;;;;;;7.70;2.10;;;;;;;;;;5079395;28;20043;-74
2024/01/16 11:58:21;;;;;;;5.53;1.88;;;;;;;;;;5080876;28;20044;-74
2024/01/16 12:00:51;;;;;;;7.22;1.65;;;;;;;;;;5080577;28;20048;-73
2024/01/16 12:03:18;;;;;;;7.60;2.10;;;;;;;;;;5092809;28;20093;-73
2024/01/16 12:05:44;;;;;;;11.38;2.20;;;;;;;;;;5067242;28;20036;-72
2024/01/16 12:08:10;;;;;;;5.65;1.75;;;;;;;;;;5073671;28;20052;-73
2024/01/16 12:10:47;;;;;;;3.67;1.50;;;;;;;;;;5073504;28;20075;-72
2024/01/16 12:13:14;;;;;;;4.63;2.05;;;;;;;;;;5057081;28;20059;-72
2024/01/16 12:15:40;;;;;;;6.63;1.80;;;;;;;;;;5078675;28;20036;-72
2024/01/16 12:18:07;;;;;;;6.35;1.92;;;;;;;;;;5057156;28;20037;-72
2024/01/16 12:20:34;;;;;;;6.70;2.13;;;;;;;;;;5056908;28;20048;-72
2024/01/16 12:23:00;;;;;;;9.25;2.78;;;;;;;;;;5056757;28;20044;-72
2024/01/16 12:25:27;;;;;;;5.28;2.15;;;;;;;;;;5065540;28;20104;-72
2024/01/16 12:28:00;;;;;;;4.60;2.10;;;;;;;;;;5077207;28;20044;-72
2024/01/16 12:30:28;;;;;;;3.60;2.08;;;;;;;;;;5090946;28;20471;-72
2024/01/16 12:33:06;;;;;;;3.65;2.10;;;;;;;;;;5076724;28;20477;-72
2024/01/16 12:35:40;;;;;;;9.48;2.50;;;;;;;;;;5091248;28;20048;-72
2024/01/16 12:38:09;;;;;;;9.18;2.42;;;;;;;;;;5095455;28;20044;-72
2024/01/16 12:40:36;;;;;;;5.35;2.45;;;;;;;;;;5089578;28;20039;-72
2024/01/16 12:43:03;;;;;;;7.68;2.33;;;;;;;;;;5053736;28;20084;-72
2024/01/16 12:45:29;;;;;;;5.43;2.50;;;;;;;;;;5069293;28;20067;-72
2024/01/16 12:47:58;;;;;;;5.65;2.42;;;;;;;;;;5092298;28;20426;-71
2024/01/16 12:50:26;;;;;;;7.13;2.75;;;;;;;;;;5093294;28;20043;-72
2024/01/16 12:53:02;;;;;;;8.35;2.72;;;;;;;;;;5059190;28;20107;-72
2024/01/16 12:55:28;;;;;;;15.40;3.72;;;;;;;;;;5085902;28;20036;-72
2024/01/16 12:58:17;;;;;;;5.75;2.78;;;;;;;;;;5057773;28;20047;-72
2024/01/16 13:00:52;;;;;;;5.65;2.90;;;;;;;;;;5073315;28;20036;-72
2024/01/16 13:03:20;;;;;;;5.90;2.40;;;;;;;;;;5089465;28;20040;-71
2024/01/16 13:05:47;;;;;;;6.07;2.47;;;;;;;;;;5077989;28;20036;-72
2024/01/16 13:08:20;;;;;;;5.97;2.70;;;;;;;;;;5072471;28;20095;-72
2024/01/16 13:10:48;;;;;;;4.72;2.03;;;;;;;;;;5081390;28;20047;-72
2024/01/16 13:13:14;;;;;;;14.25;2.53;;;;;;;;;;5072818;28;20067;-72
2024/01/16 13:15:40;;;;;;;19.58;4.50;;;;;;;;;;5056085;28;20044;-73
2024/01/16 13:18:06;;;;;;;10.77;2.42;;;;;;;;;;5055936;28;20075;-72
2024/01/16 13:20:33;;;;;;;4.63;2.40;;;;;;;;;;5081169;28;20052;-73
2024/01/16 13:22:59;;;;;;;5.88;2.05;;;;;;;;;;5085481;28;20054;-72
2024/01/16 13:25:26;;;;;;;6.22;2.47;;;;;;;;;;5076056;28;20048;-72
2024/01/16 13:27:53;;;;;;;4.05;2.10;;;;;;;;;;5076238;28;20041;-72
2024/01/16 13:30:19;;;;;;;4.15;2.22;;;;;;;;;;5069730;28;20040;-72
2024/01/16 13:32:45;;;;;;;9.55;2.67;;;;;;;;;;5084045;28;20054;-72
2024/01/16 13:35:11;;;;;;;6.28;2.65;;;;;;;;;;5093627;28;20446;-72
2024/01/16 13:37:38;;;;;;;8.98;2.25;;;;;;;;;;5078462;28;20099;-72
2024/01/16 13:40:08;;;;;;;5.47;2.58;;;;;;;;;;5073932;28;20037;-72
2024/01/16 13:42:35;;;;;;;6.35;2.20;;;;;;;;;;5056931;28;20040;-72
2024/01/16 13:45:01;;;;;;;4.90;2.03;;;;;;;;;;5086845;28;20051;-72
2024/01/16 13:47:27;;;;;;;7.82;2.55;;;;;;;;;;5082820;28;20040;-72
2024/01/16 13:49:53;;;;;;;6.93;2.17;;;;;;;;;;5089463;28;20032;-72
2024/01/16 13:52:19;;;;;;;4.88;2.10;;;;;;;;;;5086554;28;20036;-72
2024/01/16 13:54:46;;;;;;;3.63;1.90;;;;;;;;;;5080846;28;20507;-71
2024/01/16 13:57:12;;;;;;;7.57;2.50;;;;;;;;;;5079652;28;20063;-72
2024/01/16 13:59:38;;;;;;;7.68;2.65;;;;;;;;;;5081613;28;20059;-72
2024/01/16 14:02:06;;;;;;;11.55;2.85;;;;;;;;;;5074080;28;20051;-72
2024/01/16 14:04:32;;;;;;;4.63;1.98;;;;;;;;;;5086235;28;20040;-72
2024/01/16 14:06:58;;;;;;;7.63;2.45;;;;;;;;;;5068853;28;20106;-72
2024/01/16 14:09:24;;;;;;;10.07;1.60;;;;;;;;;;5054764;28;20053;-72
2024/01/16 14:11:50;;;;;;;6.10;1.85;;;;;;;;;;5073008;28;20425;-72
2024/01/16 14:14:16;;;;;;;7.10;2.38;;;;;;;;;;5076468;28;20097;-72
2024/01/16 14:16:43;;;;;;;7.57;2.00;;;;;;;;;;5071623;28;20051;-72
2024/01/16 14:19:09;;;;;;;6.10;1.98;;;;;;;;;;5071533;28;20139;-72
2024/01/16 14:21:35;;;;;;;5.22;1.70;;;;;;;;;;5084330;28;20052;-72
2024/01/16 14:24:01;;;;;;;9.32;2.72;;;;;;;;;;5068065;28;20119;-72
2024/01/16 14:26:27;;;;;;;5.13;2.13;;;;;;;;;;5071436;28;20036;-72
2024/01/16 14:28:53;;;;;;;2.72;1.60;;;;;;;;;;5071312;28;20560;-72
2024/01/16 14:31:19;;;;;;;3.92;1.65;;;;;;;;;;5091541;28;20036;-72
2024/01/16 14:33:45;;;;;;;5.30;1.60;;;;;;;;;;5085606;28;20051;-72
2024/01/16 14:36:11;;;;;;;5.25;2.10;;;;;;;;;;5071144;28;20045;-72
2024/01/16 14:38:37;;;;;;;2.63;1.63;;;;;;;;;;5071880;28;20043;-72